Afyon, Turkey

10:27 AM EEST on September 02, 2015 (GMT +0300)
Usak | | Change Station
CLOSE
Current Station
Airport
Location: Usak,
Elevation: 3015 ft
Nearby Weather Stations

Elev 3015 ft 38.68 °N, 29.40 °E | Updated 37 minutes ago

Clear
Clear
79 °F
Feels Like 79 °F
N
2
Wind Variable Wind from Variable

Today
High -- | Low -- °F
--% Chance of Precip.
Yesterday
High -- | Low -- °F
Precip. -- in
6:27 AM 7:27 PM
Waning Gibbous, 82% visible
Pressure 30.01 in
Visibility -9999.0 miles
Clouds
Dew Point 37 °F
Humidity 23%
Rainfall 0.00 in
Snow Depth Not available.
UV Not available.
Pollen Not available.
Air Quality Not available.
Flu Activity Not available.
METAR LTBO 020650Z VRB02KT CAVOK 26/03 Q1016
Pressure 30.01 in
Visibility -9999.0 miles
Clouds
Dew Point 37 °F
Humidity 23%
Rainfall 0.00 in
Snow Depth Not available.
UV Not available.
Pollen Not available.
Air Quality Not available.
Flu Activity Not available.
METAR LTBO 020650Z VRB02KT CAVOK 26/03 Q1016

10-Day Weather Forecast

×

Almanac

Astronomy

Sep. 02, 2015 Rise Set
Actual Time
Civil Twilight
Nautical Twilight
Astronomical Twilight
Moon
Length of Visible Light
Length of Day
Tomorrow will be .
, % of the Moon is Illuminated

Today's Extremes

Country Highs Country Lows

Community

WunderPhotos

Upload Photos

1,851,721 photos uploaded!

WunderBlogs® & News

Nearby

Air Quality

  Air Quality AQ Index Pollutant
Not available.

Snow Depth

Station Depth Elevation

Earthquake Activity

City Distance Mag. Time & Date
Minimum magnitude displayed is 2.5.

Coastal Water Temperatures

Place Temperature

Stations

Nearby Weather Stations

Station Location Temp. Windchill Dew Point Humidity Wind Precip. Elev Updated Type